Tioga, New York
Current Conditions -  °F | °C
As of 11:53 PM on Saturday 22 Nov 2014 (Local Time) from KBGM Reporting Station
Light Rain Light Rain  
Wind Chill: 30°   Ceiling: 3300
Heat Index: 38°   Visibility: 10mi
Dew Point: 32°   Wind: 13mph
Humidity: 79%   Direction: 210°SSW
Pressure: 30.06"   Gusts: NA
Location:  42.0544°N, 76.3493°W
Report Text: KBGM 230453Z AUTO 21011KT 10SM -RA OVC033 03/00 A3006 RMK AO2 RAE34B49 SLP192 P0002 T00330000 400331089
Loading
Personal Weather Stations






























Interactive Weather Map New forecast layout! Learn more

10-Day Weather Forecast

Advertisements
Track Severe Weather on mobile